createdAt,value
2019-05-01T00:04:04.748Z,26.83
2019-05-01T00:08:57.440Z,36.70
2019-05-01T00:13:50.137Z,27.53
2019-05-01T00:18:42.933Z,20.30
2019-05-01T00:23:35.119Z,20.90
2019-05-01T00:28:27.318Z,35.80
2019-05-01T00:33:19.748Z,21.87
2019-05-01T00:38:12.264Z,19.33
2019-05-01T00:43:04.673Z,21.17
2019-05-01T00:47:57.406Z,21.87
2019-05-01T00:52:50.157Z,19.87
2019-05-01T00:57:44.228Z,20.60
2019-05-01T01:02:38.042Z,40.73
2019-05-01T01:07:30.461Z,21.23
2019-05-01T01:12:22.795Z,20.63
2019-05-01T01:17:15.141Z,20.23
2019-05-01T01:22:08.085Z,21.00
2019-05-01T01:27:00.451Z,23.97
2019-05-01T01:31:52.799Z,23.90
2019-05-01T01:36:45.060Z,22.33
2019-05-01T01:41:37.636Z,22.93
2019-05-01T01:46:34.843Z,26.97
2019-05-01T01:51:27.915Z,29.87
2019-05-01T01:56:20.482Z,20.63
2019-05-01T02:01:30.860Z,21.83
2019-05-01T02:06:23.517Z,19.63
2019-05-01T02:11:15.565Z,19.63
2019-05-01T02:16:08.394Z,23.27
2019-05-01T02:21:00.750Z,18.27
2019-05-01T02:25:53.349Z,17.63
2019-05-01T02:30:47.658Z,18.77
2019-05-01T02:35:40.323Z,19.93
2019-05-01T02:40:50.717Z,19.07
2019-05-01T02:45:45.527Z,20.00
2019-05-01T02:50:40.444Z,21.07
2019-05-01T02:55:34.386Z,18.80
2019-05-01T03:00:27.439Z,19.87
2019-05-01T03:05:19.740Z,21.77
2019-05-01T03:10:12.973Z,19.73
2019-05-01T03:15:06.281Z,18.50
2019-05-01T03:20:00.784Z,18.57
2019-05-01T03:24:52.995Z,19.50
2019-05-01T03:29:45.643Z,19.07
2019-05-01T03:34:38.656Z,19.40
2019-05-01T03:39:31.225Z,19.70
2019-05-01T03:44:24.053Z,19.87
2019-05-01T03:49:17.252Z,20.43
2019-05-01T03:54:11.895Z,19.70
2019-05-01T03:59:05.554Z,20.40
2019-05-01T04:03:59.857Z,21.03
2019-05-01T04:08:52.752Z,21.13
2019-05-01T04:13:45.937Z,19.77
2019-05-01T04:18:41.161Z,20.63
2019-05-01T04:23:33.797Z,20.03
2019-05-01T04:28:30.962Z,19.50
2019-05-01T04:33:24.101Z,19.33
2019-05-01T04:38:18.736Z,22.60
2019-05-01T04:43:11.280Z,23.03
2019-05-01T04:48:08.762Z,21.97
2019-05-01T04:53:01.603Z,22.60
2019-05-01T04:57:54.510Z,21.60
2019-05-01T05:03:04.072Z,22.67
2019-05-01T05:07:47.044Z,22.37
2019-05-01T05:12:44.597Z,22.30
2019-05-01T05:17:37.192Z,22.00
2019-05-01T05:22:30.279Z,22.50
2019-05-01T05:27:24.563Z,23.30
2019-05-01T05:32:19.007Z,22.73
2019-05-01T05:37:24.723Z,23.40
2019-05-01T05:42:17.214Z,23.10
2019-05-01T05:47:10.263Z,22.80
2019-05-01T05:52:08.420Z,22.20
2019-05-01T05:57:09.643Z,23.13
2019-05-01T06:02:21.379Z,24.67
2019-05-01T06:07:18.076Z,25.60
2019-05-01T06:12:13.521Z,24.93
2019-05-01T06:17:23.828Z,23.50
2019-05-01T06:22:24.742Z,24.82
2019-05-01T06:27:18.086Z,26.47
2019-05-01T06:32:10.210Z,25.87
2019-05-01T06:37:02.992Z,25.97
2019-05-01T06:41:56.653Z,29.10
2019-05-01T06:47:03.183Z,30.85
2019-05-01T06:51:59.731Z,30.88
2019-05-01T06:56:52.424Z,29.42
2019-05-01T07:01:45.707Z,30.10
2019-05-01T07:06:38.540Z,29.60
2019-05-01T07:11:31.161Z,29.98
2019-05-01T07:16:24.051Z,30.00
2019-05-01T07:21:16.353Z,27.27
2019-05-01T07:26:09.938Z,26.55
2019-05-01T07:31:05.254Z,25.70
2019-05-01T07:35:58.092Z,26.10
2019-05-01T07:40:51.803Z,24.87
2019-05-01T07:45:46.096Z,23.92
2019-05-01T07:50:38.396Z,22.48
2019-05-01T07:55:37.347Z,22.22
2019-05-01T08:00:41.460Z,21.35
2019-05-01T08:05:31.344Z,19.98
2019-05-01T08:10:25.840Z,19.32
2019-05-01T08:15:17.667Z,19.48
2019-05-01T08:20:20.959Z,19.48
2019-05-01T08:25:13.851Z,17.55
2019-05-01T08:30:25.063Z,17.25
2019-05-01T08:35:19.738Z,17.42
2019-05-01T08:40:15.970Z,16.32
2019-05-01T08:45:14.739Z,15.85
2019-05-01T08:50:11.280Z,16.23
2019-05-01T08:55:09.171Z,15.43
2019-05-01T09:00:00.267Z,14.65
2019-05-01T09:05:01.954Z,14.78
2019-05-01T09:09:47.553Z,13.48
2019-05-01T09:14:40.742Z,13.58
2019-05-01T09:19:33.637Z,13.25
2019-05-01T09:24:27.839Z,11.15
2019-05-01T09:29:21.574Z,11.90
2019-05-01T09:34:18.653Z,10.50
2019-05-01T09:39:11.238Z,9.78
2019-05-01T09:44:05.780Z,9.48
2019-05-01T09:48:57.795Z,9.25
2019-05-01T09:53:54.860Z,8.98
2019-05-01T09:58:47.054Z,9.30
2019-05-01T10:03:40.071Z,10.15
2019-05-01T10:08:34.831Z,9.75
2019-05-01T10:13:26.899Z,9.48
2019-05-01T10:18:19.425Z,8.78
2019-05-01T10:23:13.153Z,10.30
2019-05-01T10:28:12.084Z,11.12
2019-05-01T10:33:03.121Z,10.40
2019-05-01T10:37:56.804Z,9.20
2019-05-01T10:42:49.093Z,9.60
2019-05-01T10:47:41.366Z,9.40
2019-05-01T10:52:34.294Z,9.25
2019-05-01T10:57:27.219Z,8.40
2019-05-01T11:02:20.012Z,9.15
2019-05-01T11:07:12.335Z,9.15
2019-05-01T11:12:05.235Z,8.33
2019-05-01T11:16:57.464Z,8.90
2019-05-01T11:21:49.772Z,8.93
2019-05-01T11:26:42.134Z,8.40
2019-05-01T11:31:52.655Z,8.53
2019-05-01T11:36:49.480Z,8.58
2019-05-01T11:41:42.977Z,7.45
2019-05-01T11:46:36.238Z,7.35
2019-05-01T11:51:28.726Z,7.47
2019-05-01T11:56:21.201Z,7.97
2019-05-01T12:01:15.252Z,7.90
2019-05-01T12:06:07.830Z,8.18
2019-05-01T12:11:01.260Z,7.67
2019-05-01T12:16:09.882Z,9.13
2019-05-01T12:21:02.396Z,8.90
2019-05-01T12:25:54.973Z,7.90
2019-05-01T12:30:47.466Z,9.95
2019-05-01T12:35:39.967Z,8.28
2019-05-01T12:40:32.673Z,8.68
2019-05-01T12:45:25.350Z,7.70
2019-05-01T12:50:18.054Z,8.13
2019-05-01T12:55:30.149Z,8.18
2019-05-01T13:00:26.132Z,7.20
2019-05-01T13:05:18.702Z,8.00
2019-05-01T13:10:11.715Z,7.92
2019-05-01T13:15:06.805Z,7.47
2019-05-01T13:19:59.271Z,6.95
2019-05-01T13:24:52.183Z,7.92
2019-05-01T13:30:01.689Z,8.20
2019-05-01T13:34:54.040Z,7.28
2019-05-01T13:39:46.661Z,7.15
2019-05-01T13:44:39.342Z,7.70
2019-05-01T13:49:31.629Z,7.42
2019-05-01T13:54:24.281Z,7.30
2019-05-01T13:59:17.212Z,7.60
2019-05-01T14:04:10.386Z,7.33
2019-05-01T14:09:04.525Z,7.12
2019-05-01T14:13:56.937Z,6.95
2019-05-01T14:18:49.250Z,7.17
2019-05-01T14:23:55.085Z,6.33
2019-05-01T14:28:47.307Z,7.65
2019-05-01T14:33:40.002Z,8.43
2019-05-01T14:38:32.703Z,8.55
2019-05-01T14:43:25.392Z,7.65
2019-05-01T14:48:17.646Z,7.10
2019-05-01T14:53:10.051Z,7.87
2019-05-01T14:58:02.715Z,7.42
2019-05-01T15:02:55.443Z,7.87
2019-05-01T15:07:47.868Z,7.12
2019-05-01T15:12:41.738Z,7.62
2019-05-01T15:17:37.882Z,7.35
2019-05-01T15:22:30.243Z,8.13
2019-05-01T15:27:22.564Z,8.15
2019-05-01T15:32:14.841Z,8.00
2019-05-01T15:37:07.377Z,8.10
2019-05-01T15:42:04.330Z,7.37
2019-05-01T15:46:56.594Z,8.68
2019-05-01T15:51:49.241Z,7.80
2019-05-01T15:56:41.977Z,7.03
2019-05-01T16:01:34.495Z,8.33
2019-05-01T16:06:27.120Z,7.83
2019-05-01T16:11:33.171Z,7.40
2019-05-01T16:16:27.356Z,8.03
2019-05-01T16:21:19.717Z,8.40
2019-05-01T16:26:12.051Z,7.40
2019-05-01T16:31:05.189Z,8.25
2019-05-01T16:35:57.127Z,8.03
2019-05-01T16:41:00.259Z,7.78
2019-05-01T16:45:52.740Z,7.62
2019-05-01T16:50:45.018Z,7.28
2019-05-01T16:55:37.357Z,7.85
2019-05-01T17:00:53.242Z,6.95
2019-05-01T17:05:53.452Z,7.50
2019-05-01T17:10:47.285Z,8.33
2019-05-01T17:15:41.676Z,9.25
2019-05-01T17:20:34.337Z,8.90
2019-05-01T17:25:29.417Z,9.88
2019-05-01T17:30:25.384Z,12.63
2019-05-01T17:35:17.712Z,12.43
2019-05-01T17:40:10.418Z,11.05
2019-05-01T17:45:02.946Z,12.07
2019-05-01T17:49:55.684Z,11.35
2019-05-01T17:54:47.988Z,11.63
2019-05-01T17:59:40.833Z,10.80
2019-05-01T18:04:35.079Z,12.55
2019-05-01T18:09:27.236Z,10.68
2019-05-01T18:14:19.584Z,10.70
2019-05-01T18:19:12.730Z,16.30
2019-05-01T18:24:24.657Z,19.70
2019-05-01T18:29:27.559Z,23.85
2019-05-01T18:34:20.008Z,23.55
2019-05-01T18:39:22.017Z,20.05
2019-05-01T18:44:13.976Z,16.40
2019-05-01T18:49:06.653Z,11.03
2019-05-01T18:53:59.347Z,9.63
2019-05-01T18:58:51.384Z,8.78
2019-05-01T19:03:44.192Z,8.50
2019-05-01T19:08:36.534Z,8.93
2019-05-01T19:13:29.105Z,11.08
2019-05-01T19:18:21.440Z,9.40
2019-05-01T19:23:13.567Z,9.53
2019-05-01T19:28:07.436Z,10.20
2019-05-01T19:33:00.141Z,10.30
2019-05-01T19:37:52.843Z,9.80
2019-05-01T19:42:46.708Z,8.78
2019-05-01T19:47:39.365Z,9.03
2019-05-01T19:52:32.323Z,9.38
2019-05-01T19:57:25.305Z,9.98
2019-05-01T20:02:22.309Z,10.08
2019-05-01T20:07:15.643Z,10.43
2019-05-01T20:12:06.855Z,9.65
2019-05-01T20:16:58.938Z,10.23
2019-05-01T20:21:51.747Z,9.35
2019-05-01T20:26:44.870Z,10.93
2019-05-01T20:31:36.814Z,12.35
2019-05-01T20:36:29.839Z,14.38
2019-05-01T20:41:22.471Z,14.95
2019-05-01T20:46:15.531Z,25.10
2019-05-01T20:51:07.967Z,13.25
2019-05-01T20:56:04.546Z,12.63
2019-05-01T21:00:57.988Z,11.28
2019-05-01T21:06:07.933Z,11.50
2019-05-01T21:11:10.873Z,11.80
2019-05-01T21:16:01.646Z,11.05
2019-05-01T21:20:54.261Z,10.90
2019-05-01T21:25:46.397Z,10.45
2019-05-01T21:30:42.980Z,12.25
2019-05-01T21:35:34.119Z,12.33
2019-05-01T21:40:37.767Z,10.88
2019-05-01T21:45:22.874Z,12.03
2019-05-01T21:50:17.858Z,12.43
2019-05-01T21:55:09.125Z,11.43
2019-05-01T22:00:01.377Z,10.93
2019-05-01T22:04:53.661Z,10.65
2019-05-01T22:09:50.568Z,10.90
2019-05-01T22:14:57.325Z,11.93
2019-05-01T22:19:49.856Z,12.00
2019-05-01T22:24:49.979Z,13.83
2019-05-01T22:29:44.000Z,13.38
2019-05-01T22:34:46.965Z,13.18
2019-05-01T22:39:41.197Z,17.23
2019-05-01T22:44:33.849Z,20.25
2019-05-01T22:49:26.579Z,14.60
2019-05-01T22:54:18.922Z,13.22
2019-05-01T22:59:12.103Z,12.95
2019-05-01T23:04:06.008Z,14.00
2019-05-01T23:08:58.447Z,14.93
2019-05-01T23:13:50.768Z,16.90
2019-05-01T23:18:47.044Z,14.23
2019-05-01T23:23:37.425Z,20.57
2019-05-01T23:28:29.726Z,14.95
2019-05-01T23:33:22.451Z,43.68
2019-05-01T23:38:14.872Z,29.50
2019-05-01T23:43:07.205Z,15.30
2019-05-01T23:47:59.293Z,18.30
2019-05-01T23:52:51.610Z,25.00
2019-05-01T23:57:44.170Z,26.73
